Terminal Aerodrome Forecast
Issued by NWS

Home | Current Version | Previous Version | Text Only | Print | Product List | Glossary On
Versions: 1 2 3 4 5 6 7 8 9 10 11 12 13
000
FTPA31 PHFO 192122 AAA
TAFHJH
TAF AMD
PHJH 192122Z 1921/2018 02018G25KT P6SM VCSH SCT025 SCT040 BKN200
     FM192200 03025G35KT P6SM FEW025 SCT040 BKN200
     FM200500 03015G23KT P6SM SCT035 BKN200=

USA.gov is the U.S. government's official web portal to all federal, state and local government web resources and services.